Time;durP1;ratioP1;P1;durP2;ratioP2;P2;SDS_P1;SDS_P2;PMS_P1;PMS_P2;Temp;Humidity;BMP_temperature;BMP_pressure;BME280_temperature;BME280_humidity;BME280_pressure;Samples;Min_cycle;Max_cycle;Signal;HPM_P1;HPM_P2
2023/10/06 00:00:47;;;;;;;7.53;5.27;;;15.20;60.90;;;;;;4999450;28;20197;-45
2023/10/06 00:03:16;;;;;;;9.77;5.70;;;15.30;60.60;;;;;;4989973;28;20450;-44
2023/10/06 00:05:44;;;;;;;8.90;5.40;;;15.30;60.20;;;;;;4996925;28;20846;-44
2023/10/06 00:08:31;;;;;;;8.40;5.33;;;15.10;60.30;;;;;;4998208;28;20446;-47
2023/10/06 00:11:10;;;;;;;10.53;7.10;;;15.20;60.60;;;;;;5000904;28;20449;-43
2023/10/06 00:13:37;;;;;;;10.00;6.10;;;15.10;60.40;;;;;;5010740;28;20436;-45
2023/10/06 00:16:05;;;;;;;8.37;5.67;;;15.10;60.60;;;;;;4997119;28;20500;-44
2023/10/06 00:18:36;;;;;;;11.40;6.30;;;15.10;60.40;;;;;;4995473;28;20548;-43
2023/10/06 00:21:07;;;;;;;8.30;5.30;;;15.10;60.00;;;;;;4998444;28;20445;-48
2023/10/06 00:23:38;;;;;;;9.03;5.53;;;15.00;60.80;;;;;;5008700;28;20436;-43
2023/10/06 00:26:04;;;;;;;10.57;5.30;;;15.00;60.50;;;;;;4999346;28;20523;-45
2023/10/06 00:28:32;;;;;;;12.50;6.70;;;15.10;60.10;;;;;;5000670;28;20445;-44
2023/10/06 00:31:08;;;;;;;8.90;5.07;;;15.00;59.90;;;;;;4999919;28;20914;-43
2023/10/06 00:33:37;;;;;;;9.37;5.50;;;15.10;59.70;;;;;;5005397;28;20440;-45
2023/10/06 00:36:11;;;;;;;6.53;4.70;;;15.10;60.00;;;;;;5001046;28;20449;-44
2023/10/06 00:38:37;;;;;;;10.43;5.13;;;15.10;59.30;;;;;;4991490;28;20453;-44
2023/10/06 00:41:14;;;;;;;13.97;6.70;;;15.10;59.20;;;;;;4993142;28;20948;-44
2023/10/06 00:43:41;;;;;;;12.13;5.67;;;15.10;59.30;;;;;;4994491;28;20476;-44
2023/10/06 00:46:07;;;;;;;7.77;5.37;;;14.90;59.90;;;;;;4995731;28;20495;-43
2023/10/06 00:48:53;;;;;;;9.57;5.07;;;14.80;60.00;;;;;;4997971;28;20441;-46
2023/10/06 00:51:22;;;;;;;12.00;5.63;;;14.80;60.30;;;;;;5004061;28;20515;-45
2023/10/06 00:53:51;;;;;;;8.80;5.07;;;14.70;60.40;;;;;;4995447;28;20453;-44
2023/10/06 00:56:23;;;;;;;6.40;4.87;;;14.60;60.70;;;;;;4993250;28;20899;-44
2023/10/06 00:58:49;;;;;;;8.13;5.10;;;14.50;61.30;;;;;;5000777;28;20471;-43
2023/10/06 01:01:19;;;;;;;8.90;5.30;;;14.60;61.20;;;;;;4995288;28;20438;-43
2023/10/06 01:04:00;;;;;;;9.10;6.10;;;14.70;60.70;;;;;;5002401;28;20803;-43
2023/10/06 01:06:33;;;;;;;7.43;4.93;;;14.70;60.30;;;;;;4992506;28;21000;-44
2023/10/06 01:09:07;;;;;;;9.00;6.10;;;14.70;60.00;;;;;;4993132;28;20445;-43
2023/10/06 01:11:59;;;;;;;8.73;5.20;;;14.30;60.80;;;;;;4993792;28;21026;-46
2023/10/06 01:14:26;;;;;;;9.03;4.87;;;14.20;62.30;;;;;;4992459;28;20530;-45
2023/10/06 01:16:54;;;;;;;9.50;4.70;;;14.20;62.20;;;;;;4993575;28;20441;-43
2023/10/06 01:19:33;;;;;;;8.13;5.47;;;14.20;62.00;;;;;;4985276;28;20438;-45
2023/10/06 01:22:22;;;;;;;6.53;3.87;;;14.20;62.30;;;;;;4988706;28;22847;-43
2023/10/06 01:24:45;;;;;;;8.40;5.57;;;14.10;62.10;;;;;;4991610;28;20448;-44
2023/10/06 01:27:11;;;;;;;8.93;5.27;;;13.80;63.20;;;;;;4996005;28;20446;-43
2023/10/06 01:29:38;;;;;;;7.77;4.40;;;13.80;63.70;;;;;;4991504;28;20199;-43
2023/10/06 01:32:05;;;;;;;9.50;5.20;;;14.00;63.40;;;;;;4995269;28;20273;-44
2023/10/06 01:34:37;;;;;;;5.80;4.40;;;14.00;62.40;;;;;;4991767;28;21020;-44
2023/10/06 01:37:03;;;;;;;8.93;5.87;;;14.10;62.10;;;;;;4994132;28;20821;-43
2023/10/06 01:39:32;;;;;;;7.50;4.40;;;14.10;61.50;;;;;;4994560;28;20442;-43
2023/10/06 01:42:04;;;;;;;8.17;4.73;;;14.00;62.10;;;;;;4985189;28;20962;-44
2023/10/06 01:44:34;;;;;;;7.50;5.57;;;13.90;62.30;;;;;;4985913;28;20437;-45
2023/10/06 01:47:00;;;;;;;6.80;4.33;;;13.80;62.10;;;;;;4988489;28;20497;-46
2023/10/06 01:49:27;;;;;;;6.67;4.90;;;13.70;62.60;;;;;;4988758;28;20520;-43
2023/10/06 01:51:52;;;;;;;10.57;4.80;;;13.80;62.50;;;;;;4985174;28;20711;-44
2023/10/06 01:54:20;;;;;;;7.40;4.60;;;13.70;62.50;;;;;;4986864;28;20447;-46
2023/10/06 01:56:47;;;;;;;8.77;5.40;;;13.60;62.90;;;;;;4992605;28;20226;-44
2023/10/06 01:59:16;;;;;;;8.37;5.73;;;13.70;63.00;;;;;;4991119;28;20970;-47
2023/10/06 02:01:42;;;;;;;7.00;5.13;;;13.80;62.90;;;;;;4986761;28;20828;-44
2023/10/06 02:04:14;;;;;;;12.70;5.60;;;13.80;62.30;;;;;;4987044;28;20445;-43
2023/10/06 02:06:44;;;;;;;10.47;6.00;;;13.70;62.90;;;;;;4990337;28;20555;-43
2023/10/06 02:09:19;;;;;;;5.13;4.63;;;13.40;63.40;;;;;;4992996;28;20450;-45
2023/10/06 02:11:46;;;;;;;12.63;6.30;;;13.30;64.60;;;;;;4989633;28;20429;-43
2023/10/06 02:14:16;;;;;;;12.77;6.17;;;13.40;64.70;;;;;;5005557;28;20821;-44
2023/10/06 02:16:44;;;;;;;9.60;5.30;;;13.50;63.70;;;;;;5004993;28;20443;-45
2023/10/06 02:19:15;;;;;;;6.90;4.90;;;13.60;63.60;;;;;;4991071;28;20496;-45
2023/10/06 02:21:46;;;;;;;10.33;5.83;;;13.70;62.80;;;;;;5003951;28;20499;-45
2023/10/06 02:24:12;;;;;;;10.17;5.50;;;13.70;62.50;;;;;;4995658;28;20589;-44
2023/10/06 02:26:38;;;;;;;8.57;5.17;;;13.70;63.00;;;;;;5004940;28;20851;-46
2023/10/06 02:29:11;;;;;;;7.57;5.43;;;13.80;62.90;;;;;;4997444;28;20442;-45
2023/10/06 02:31:37;;;;;;;8.50;4.80;;;13.80;62.40;;;;;;4986595;28;20452;-43
2023/10/06 02:34:12;;;;;;;6.50;5.07;;;13.90;62.30;;;;;;4998242;28;20445;-43
2023/10/06 02:36:38;;;;;;;25.97;13.47;;;13.90;62.90;;;;;;5001956;28;20198;-43
2023/10/06 02:39:06;;;;;;;34.60;17.77;;;14.00;61.90;;;;;;4988549;28;20965;-43
2023/10/06 02:41:33;;;;;;;20.90;10.83;;;14.00;61.40;;;;;;4987202;28;20445;-45
2023/10/06 02:44:14;;;;;;;11.77;7.40;;;14.00;61.30;;;;;;4989189;28;20534;-44
2023/10/06 02:46:41;;;;;;;10.80;6.40;;;13.80;61.30;;;;;;4986820;28;20521;-43
2023/10/06 02:49:08;;;;;;;8.37;6.10;;;13.80;61.50;;;;;;4987852;28;20438;-43
2023/10/06 02:51:33;;;;;;;11.07;5.70;;;13.70;61.90;;;;;;4988662;28;20815;-45
2023/10/06 02:54:21;;;;;;;9.40;5.50;;;13.60;62.00;;;;;;4986407;28;20536;-43
2023/10/06 02:56:47;;;;;;;9.73;5.73;;;13.80;62.10;;;;;;4985069;28;20218;-45
2023/10/06 02:59:23;;;;;;;8.77;5.47;;;13.70;61.50;;;;;;4992787;28;20485;-43
2023/10/06 03:02:17;;;;;;;7.27;5.27;;;13.70;61.50;;;;;;4995322;28;20445;-43
2023/10/06 03:04:43;;;;;;;8.70;5.00;;;13.40;62.00;;;;;;4986920;28;20579;-43
2023/10/06 03:07:14;;;;;;;8.33;5.60;;;13.50;62.50;;;;;;4990452;28;20573;-43
2023/10/06 03:09:45;;;;;;;8.03;6.20;;;13.50;62.40;;;;;;4996588;28;20454;-44
2023/10/06 03:12:15;;;;;;;7.73;5.97;;;13.50;62.30;;;;;;4990185;28;20442;-45
2023/10/06 03:14:42;;;;;;;10.80;5.53;;;13.40;61.90;;;;;;4999174;28;20814;-44
2023/10/06 03:17:09;;;;;;;9.00;6.40;;;13.10;63.10;;;;;;4987759;28;20456;-46
2023/10/06 03:19:40;;;;;;;9.20;5.57;;;13.20;63.70;;;;;;4997437;28;20484;-44
2023/10/06 03:22:12;;;;;;;7.73;5.50;;;13.10;63.40;;;;;;4992613;28;20529;-43
2023/10/06 03:24:58;;;;;;;12.03;6.27;;;12.80;64.90;;;;;;4991507;28;20454;-44
2023/10/06 03:27:24;;;;;;;8.17;5.70;;;12.90;64.90;;;;;;5002653;28;20899;-44
2023/10/06 03:30:07;;;;;;;7.83;5.90;;;13.00;64.80;;;;;;4991901;28;20453;-43
2023/10/06 03:32:38;;;;;;;11.87;9.13;;;12.70;65.30;;;;;;4989462;28;20197;-43
2023/10/06 03:37:52;;;;;;;8.07;5.93;;;13.00;65.30;;;;;;4997226;28;21010;-44
2023/10/06 03:40:24;;;;;;;7.87;6.30;;;13.00;64.20;;;;;;4996109;28;20445;-44
2023/10/06 03:42:52;;;;;;;18.83;6.17;;;13.10;63.90;;;;;;4987069;28;20449;-44
2023/10/06 03:45:20;;;;;;;11.77;6.40;;;13.10;63.50;;;;;;4993816;28;20556;-45
2023/10/06 03:47:48;;;;;;;14.03;5.87;;;13.10;63.90;;;;;;4986083;28;20897;-43
2023/10/06 03:50:15;;;;;;;9.20;5.83;;;13.00;63.60;;;;;;4995062;28;20446;-45
2023/10/06 03:52:41;;;;;;;7.80;6.30;;;13.00;63.70;;;;;;4986650;28;20765;-44
2023/10/06 03:55:07;;;;;;;30.83;6.83;;;13.10;63.70;;;;;;4982140;28;20516;-45
2023/10/06 03:57:32;;;;;;;9.83;5.00;;;13.10;63.60;;;;;;4995872;28;20229;-43
2023/10/06 03:59:58;;;;;;;10.50;6.80;;;13.00;63.50;;;;;;4992651;28;20847;-45
2023/10/06 04:02:38;;;;;;;8.53;5.77;;;13.10;63.40;;;;;;4991767;28;20201;-45
2023/10/06 04:05:06;;;;;;;13.67;6.00;;;13.10;63.70;;;;;;4986949;28;20296;-44
2023/10/06 04:07:32;;;;;;;8.57;5.57;;;13.10;63.30;;;;;;4986262;28;20456;-46
2023/10/06 04:09:57;;;;;;;8.93;5.27;;;13.10;63.30;;;;;;4987119;28;20804;-50
2023/10/06 04:12:23;;;;;;;18.63;5.80;;;13.10;63.20;;;;;;5005788;28;20240;-47
2023/10/06 04:14:49;;;;;;;7.60;5.40;;;13.20;62.90;;;;;;4986651;28;20202;-45
2023/10/06 04:17:16;;;;;;;6.73;5.10;;;13.20;62.90;;;;;;4987828;28;20726;-47
2023/10/06 04:19:42;;;;;;;9.27;5.87;;;13.20;62.40;;;;;;4993415;28;21003;-49
2023/10/06 04:22:08;;;;;;;13.43;6.90;;;13.30;62.30;;;;;;5000761;28;20513;-47
2023/10/06 04:24:34;;;;;;;5.87;5.30;;;13.30;62.10;;;;;;4985917;28;20216;-46
2023/10/06 04:27:00;;;;;;;8.03;5.40;;;13.40;61.80;;;;;;4993267;28;21038;-44
2023/10/06 04:29:26;;;;;;;7.83;5.40;;;13.40;61.80;;;;;;4990785;28;20807;-47
2023/10/06 04:31:51;;;;;;;12.50;5.77;;;13.30;61.80;;;;;;5002106;28;20453;-44
2023/10/06 04:34:21;;;;;;;13.87;5.33;;;13.40;61.80;;;;;;4993737;28;20677;-44
2023/10/06 04:36:48;;;;;;;7.13;5.47;;;13.30;61.80;;;;;;4990270;28;20206;-48
2023/10/06 04:39:16;;;;;;;8.17;5.40;;;13.30;61.80;;;;;;4998756;28;20452;-47
2023/10/06 04:41:42;;;;;;;11.87;5.47;;;13.30;61.70;;;;;;4992215;28;20820;-46
2023/10/06 04:44:08;;;;;;;18.53;5.90;;;13.30;61.70;;;;;;4981354;28;20469;-44
2023/10/06 04:46:35;;;;;;;9.37;5.77;;;13.30;61.80;;;;;;4992813;28;20489;-47
2023/10/06 04:49:01;;;;;;;9.30;5.60;;;13.30;62.00;;;;;;4999564;28;20531;-47
2023/10/06 04:51:29;;;;;;;10.73;6.03;;;13.20;61.80;;;;;;4998571;28;20519;-46
2023/10/06 04:53:55;;;;;;;9.00;5.43;;;13.20;62.40;;;;;;4990159;28;21010;-43
2023/10/06 04:56:22;;;;;;;7.47;5.50;;;13.20;62.20;;;;;;4993562;28;20512;-43
2023/10/06 04:58:47;;;;;;;7.60;5.60;;;13.20;62.20;;;;;;4999530;28;20202;-43
2023/10/06 05:01:16;;;;;;;10.30;6.17;;;13.10;62.30;;;;;;4999505;28;21018;-48
2023/10/06 05:03:43;;;;;;;12.37;6.30;;;13.20;62.40;;;;;;4992897;28;20520;-43
2023/10/06 05:06:13;;;;;;;16.90;5.50;;;13.20;62.20;;;;;;4996989;28;21397;-47
2023/10/06 05:08:40;;;;;;;14.10;5.17;;;13.10;62.10;;;;;;4996833;28;20504;-44
2023/10/06 05:11:12;;;;;;;16.13;5.80;;;13.10;62.40;;;;;;4992375;28;20442;-45
2023/10/06 05:13:37;;;;;;;10.13;5.70;;;13.20;72.30;;;;;;4989970;28;20449;-44
2023/10/06 05:16:03;;;;;;;8.40;5.30;;;13.80;72.20;;;;;;5001173;28;20438;-47
2023/10/06 05:18:29;;;;;;;7.50;5.77;;;14.40;70.00;;;;;;4990382;28;20205;-45
2023/10/06 05:20:55;;;;;;;5.70;5.00;;;14.80;67.40;;;;;;5000157;28;20437;-47
2023/10/06 05:23:21;;;;;;;5.40;4.90;;;15.10;64.30;;;;;;4991769;28;20453;-43
2023/10/06 05:25:47;;;;;;;5.63;4.43;;;15.20;61.40;;;;;;4988874;28;20230;-44
2023/10/06 05:28:17;;;;;;;5.53;4.63;;;15.40;59.70;;;;;;4997179;28;20194;-45
2023/10/06 05:30:43;;;;;;;4.47;4.03;;;15.60;59.30;;;;;;4987665;28;21197;-45
2023/10/06 05:33:10;;;;;;;7.47;5.60;;;15.70;58.50;;;;;;4996362;28;20446;-46
2023/10/06 05:35:41;;;;;;;5.73;4.13;;;15.80;57.10;;;;;;4982350;28;20523;-48
2023/10/06 05:38:08;;;;;;;4.97;4.50;;;15.60;56.20;;;;;;4999396;28;20448;-44
2023/10/06 05:40:37;;;;;;;8.80;4.40;;;15.40;56.50;;;;;;4995277;28;20484;-50
2023/10/06 05:43:04;;;;;;;11.23;4.47;;;15.30;56.30;;;;;;4992548;28;20493;-45
2023/10/06 05:45:30;;;;;;;10.30;4.40;;;14.80;56.30;;;;;;4988626;28;20494;-47
2023/10/06 05:47:58;;;;;;;7.40;5.20;;;14.60;57.40;;;;;;4990022;28;20823;-47
2023/10/06 05:50:28;;;;;;;8.53;4.80;;;14.60;57.90;;;;;;4995611;28;20694;-47
2023/10/06 05:53:12;;;;;;;5.20;4.33;;;14.60;58.10;;;;;;5006602;28;20491;-44
2023/10/06 05:55:41;;;;;;;6.27;5.20;;;14.60;58.10;;;;;;5000096;28;20481;-46
2023/10/06 05:58:09;;;;;;;6.40;5.00;;;14.60;57.60;;;;;;4998580;28;20857;-46
2023/10/06 06:00:43;;;;;;;6.97;5.47;;;14.50;58.20;;;;;;4989762;28;20462;-45
2023/10/06 06:03:10;;;;;;;8.27;5.70;;;14.40;58.40;;;;;;4991075;28;20530;-44
2023/10/06 06:05:39;;;;;;;8.93;6.53;;;14.40;58.40;;;;;;5000188;28;20496;-44
2023/10/06 06:08:08;;;;;;;7.37;6.00;;;14.50;58.30;;;;;;5001631;28;21012;-44
2023/10/06 06:10:35;;;;;;;6.80;5.53;;;14.60;57.90;;;;;;4995598;28;20467;-49
2023/10/06 06:13:01;;;;;;;6.73;5.50;;;14.60;57.90;;;;;;5006319;28;20460;-44
2023/10/06 06:15:26;;;;;;;6.17;5.03;;;14.50;58.60;;;;;;5006489;28;20454;-44
2023/10/06 06:17:58;;;;;;;8.43;5.37;;;14.40;59.00;;;;;;4997837;28;20436;-44
2023/10/06 06:20:24;;;;;;;11.33;6.00;;;14.20;59.00;;;;;;5002376;28;20198;-45
2023/10/06 06:22:53;;;;;;;6.00;5.43;;;14.20;59.40;;;;;;4999316;28;21107;-45
2023/10/06 06:25:21;;;;;;;6.80;6.10;;;14.10;59.90;;;;;;5004977;28;20517;-45
2023/10/06 06:27:47;;;;;;;5.67;4.73;;;14.20;60.60;;;;;;4993428;28;20451;-46
2023/10/06 06:30:16;;;;;;;7.07;5.60;;;14.20;59.60;;;;;;4988103;28;21012;-45
2023/10/06 06:32:50;;;;;;;7.77;6.13;;;14.40;59.50;;;;;;4995716;28;20209;-46
2023/10/06 06:35:19;;;;;;;5.13;4.60;;;14.50;59.20;;;;;;4986287;28;21058;-50
2023/10/06 06:37:51;;;;;;;9.60;6.13;;;14.70;59.20;;;;;;4991214;28;20446;-44
2023/10/06 06:40:19;;;;;;;9.43;5.77;;;14.80;59.00;;;;;;4993808;28;20966;-46
2023/10/06 06:42:46;;;;;;;7.67;5.70;;;14.80;58.80;;;;;;4987035;28;20457;-45
2023/10/06 06:45:13;;;;;;;8.37;6.30;;;14.90;58.70;;;;;;4983588;28;20476;-44
2023/10/06 06:47:41;;;;;;;7.70;6.13;;;15.10;58.60;;;;;;4991243;28;20461;-47
2023/10/06 06:50:09;;;;;;;7.40;6.20;;;15.30;58.40;;;;;;4999805;28;20457;-47
2023/10/06 06:52:35;;;;;;;11.30;5.57;;;15.40;58.00;;;;;;4990900;28;20520;-46
2023/10/06 06:55:01;;;;;;;6.43;5.20;;;15.50;57.60;;;;;;5005131;28;20472;-46
2023/10/06 06:57:26;;;;;;;6.70;5.40;;;15.60;57.80;;;;;;4987847;28;20488;-46
2023/10/06 06:59:52;;;;;;;8.33;5.67;;;15.70;58.00;;;;;;4985604;28;20200;-46
2023/10/06 07:02:20;;;;;;;7.20;5.87;;;15.90;57.50;;;;;;4990133;28;20265;-45
2023/10/06 07:04:45;;;;;;;10.60;5.40;;;16.20;57.10;;;;;;4994227;28;20516;-45
2023/10/06 07:09:48;;;;;;;7.93;5.10;;;16.50;56.90;;;;;;4413641;22;23281;-45
2023/10/06 07:12:14;;;;;;;7.27;6.00;;;16.70;56.50;;;;;;5042781;28;20451;-44
2023/10/06 07:14:39;;;;;;;8.23;5.80;;;16.80;56.30;;;;;;5046651;28;20196;-44
2023/10/06 07:17:05;;;;;;;8.90;5.47;;;16.80;56.00;;;;;;5049329;28;20460;-46
2023/10/06 07:19:30;;;;;;;6.40;5.23;;;16.90;56.40;;;;;;5048768;28;20193;-45
2023/10/06 07:21:56;;;;;;;7.50;5.77;;;17.10;56.10;;;;;;5046297;28;20579;-44
2023/10/06 07:24:21;;;;;;;7.47;6.13;;;17.20;55.80;;;;;;5047294;28;20192;-44
2023/10/06 07:26:47;;;;;;;8.17;5.90;;;17.20;56.10;;;;;;5043923;28;20307;-44
2023/10/06 07:29:14;;;;;;;11.07;6.73;;;17.40;55.80;;;;;;5049812;28;20197;-44
2023/10/06 07:31:39;;;;;;;8.57;6.30;;;17.50;55.60;;;;;;5045997;28;20196;-44
2023/10/06 07:34:05;;;;;;;7.47;5.70;;;17.70;55.60;;;;;;5042201;28;20536;-44
2023/10/06 07:36:35;;;;;;;7.67;5.90;;;17.80;55.30;;;;;;5043103;28;20246;-44
2023/10/06 07:39:03;;;;;;;10.33;6.17;;;17.90;55.00;;;;;;5041620;28;20857;-45
2023/10/06 07:41:29;;;;;;;9.50;5.80;;;18.00;55.00;;;;;;5045323;28;20849;-45
2023/10/06 07:43:56;;;;;;;9.67;6.40;;;18.20;54.70;;;;;;5043334;28;20447;-45
2023/10/06 07:46:21;;;;;;;9.80;6.17;;;18.30;55.20;;;;;;5045986;28;20228;-44
2023/10/06 07:48:47;;;;;;;9.90;6.37;;;18.40;54.50;;;;;;5042653;28;20454;-44
2023/10/06 07:51:19;;;;;;;7.50;5.93;;;18.50;54.50;;;;;;5046612;28;20380;-44
2023/10/06 07:53:45;;;;;;;9.60;6.13;;;18.60;54.60;;;;;;5038083;28;20189;-44
2023/10/06 07:56:11;;;;;;;7.93;6.00;;;18.80;54.70;;;;;;5040111;28;20443;-44
2023/10/06 07:58:40;;;;;;;8.13;5.80;;;18.90;54.10;;;;;;5050890;28;20240;-45
2023/10/06 08:01:07;;;;;;;8.70;5.90;;;18.80;53.70;;;;;;5050209;28;20443;-45
2023/10/06 08:03:34;;;;;;;13.70;6.50;;;18.80;53.90;;;;;;5045188;28;20427;-44
2023/10/06 08:06:01;;;;;;;7.57;5.50;;;18.90;54.50;;;;;;5041221;28;20635;-45
2023/10/06 08:08:28;;;;;;;9.20;6.00;;;18.90;53.90;;;;;;5046858;28;20496;-42
2023/10/06 08:10:56;;;;;;;6.60;5.90;;;18.80;54.30;;;;;;5043076;28;21014;-44
2023/10/06 08:13:22;;;;;;;9.97;6.80;;;18.90;54.50;;;;;;5048320;28;20446;-45
2023/10/06 08:15:47;;;;;;;8.30;5.53;;;19.00;54.80;;;;;;5043520;28;20446;-45
2023/10/06 08:18:13;;;;;;;7.17;5.53;;;19.10;53.80;;;;;;5048973;28;20795;-45
2023/10/06 08:20:40;;;;;;;10.80;5.93;;;19.10;53.50;;;;;;5050134;28;20203;-44
2023/10/06 08:23:07;;;;;;;12.47;6.03;;;19.30;53.50;;;;;;5037246;28;20200;-45
2023/10/06 08:25:35;;;;;;;9.87;5.70;;;19.30;53.50;;;;;;5045378;28;20485;-44
2023/10/06 08:28:04;;;;;;;8.10;5.67;;;19.10;53.80;;;;;;5050014;28;20941;-44
2023/10/06 08:30:32;;;;;;;7.80;5.77;;;19.20;53.70;;;;;;5043702;28;20424;-44
2023/10/06 08:32:59;;;;;;;9.10;5.27;;;19.40;53.20;;;;;;5053546;28;20443;-44
2023/10/06 08:35:26;;;;;;;11.47;5.67;;;19.60;52.80;;;;;;5049278;28;20438;-44
2023/10/06 08:37:52;;;;;;;13.93;5.07;;;19.60;51.70;;;;;;5043659;28;20438;-44
2023/10/06 08:40:22;;;;;;;7.30;5.40;;;19.70;52.20;;;;;;5049902;28;20466;-44
2023/10/06 08:42:53;;;;;;;7.40;5.60;;;19.70;51.80;;;;;;5050957;28;20516;-45
2023/10/06 08:45:27;;;;;;;10.97;5.60;;;19.80;52.00;;;;;;5042403;28;20474;-44
2023/10/06 08:48:01;;;;;;;8.67;6.33;;;20.00;52.60;;;;;;5047837;28;20593;-44
2023/10/06 08:50:28;;;;;;;8.33;6.47;;;20.10;52.20;;;;;;5049134;28;20443;-48
2023/10/06 08:52:55;;;;;;;10.40;6.20;;;20.20;51.70;;;;;;5050163;28;20435;-46
2023/10/06 08:55:23;;;;;;;10.13;5.53;;;20.40;51.60;;;;;;5051969;28;20442;-47
2023/10/06 08:57:50;;;;;;;8.30;6.20;;;20.50;52.00;;;;;;5047208;28;20537;-44
2023/10/06 09:00:24;;;;;;;8.30;5.30;;;20.60;50.70;;;;;;5067225;28;20906;-45
2023/10/06 09:02:51;;;;;;;8.60;5.80;;;20.80;51.00;;;;;;5050926;28;20447;-45
2023/10/06 09:05:17;;;;;;;8.17;5.00;;;20.90;50.50;;;;;;5043352;28;20478;-46
2023/10/06 09:07:59;;;;;;;11.53;5.53;;;20.90;51.00;;;;;;5044493;28;20448;-44
2023/10/06 09:10:27;;;;;;;10.70;5.53;;;21.00;49.60;;;;;;5049516;28;20471;-45
2023/10/06 09:13:07;;;;;;;8.20;5.40;;;21.20;49.10;;;;;;5046916;28;20493;-48
2023/10/06 09:15:35;;;;;;;8.70;5.43;;;21.40;48.90;;;;;;5047507;28;20450;-48
2023/10/06 09:18:02;;;;;;;9.77;6.00;;;21.50;48.50;;;;;;5052011;28;20478;-46
2023/10/06 09:20:31;;;;;;;10.77;4.73;;;21.50;48.70;;;;;;5048908;28;20447;-49
2023/10/06 09:22:58;;;;;;;10.80;5.57;;;21.70;49.10;;;;;;5053772;28;20945;-46
2023/10/06 09:25:24;;;;;;;6.80;5.53;;;21.80;48.40;;;;;;5043502;28;20475;-49
2023/10/06 09:28:04;;;;;;;9.27;5.40;;;22.00;49.00;;;;;;5045103;28;20492;-49
2023/10/06 09:30:30;;;;;;;9.27;5.60;;;22.20;48.10;;;;;;5048729;28;20453;-47
2023/10/06 09:33:04;;;;;;;10.20;5.43;;;22.20;47.70;;;;;;5051878;28;20447;-48
2023/10/06 09:35:30;;;;;;;9.63;5.50;;;22.40;47.00;;;;;;5050976;28;20455;-49
2023/10/06 09:38:17;;;;;;;9.90;5.53;;;22.40;47.30;;;;;;5053200;28;20439;-46
2023/10/06 09:40:46;;;;;;;7.33;5.20;;;22.60;46.70;;;;;;5052451;28;20439;-48
2023/10/06 09:43:15;;;;;;;13.60;7.30;;;22.70;46.40;;;;;;5051879;28;20467;-49
2023/10/06 09:45:44;;;;;;;13.00;6.00;;;22.70;46.80;;;;;;5045771;28;20586;-50
2023/10/06 09:48:15;;;;;;;10.03;5.50;;;22.80;46.30;;;;;;5038408;28;20444;-45
2023/10/06 09:51:00;;;;;;;11.67;5.93;;;22.90;46.00;;;;;;5033624;28;20490;-45
2023/10/06 09:53:28;;;;;;;11.90;6.47;;;23.00;46.30;;;;;;5031290;28;20443;-46
2023/10/06 09:55:54;;;;;;;12.27;5.63;;;23.00;45.50;;;;;;5048094;28;20446;-45
2023/10/06 09:58:22;;;;;;;12.07;5.90;;;23.00;46.00;;;;;;5049134;28;20898;-55
2023/10/06 10:00:49;;;;;;;7.67;5.20;;;23.10;45.80;;;;;;5047598;28;20447;-45
2023/10/06 10:03:16;;;;;;;9.57;5.43;;;23.20;45.60;;;;;;5050786;28;20434;-50
2023/10/06 10:05:43;;;;;;;11.20;5.80;;;23.30;45.50;;;;;;5040233;28;20474;-46
2023/10/06 10:08:10;;;;;;;9.13;5.37;;;23.50;45.70;;;;;;5045067;28;20439;-48
2023/10/06 10:10:39;;;;;;;12.90;6.17;;;23.60;45.80;;;;;;5040080;28;20467;-49
2023/10/06 10:13:28;;;;;;;8.20;5.23;;;23.70;45.20;;;;;;5043787;28;20432;-49
2023/10/06 10:16:16;;;;;;;6.30;4.90;;;23.70;45.30;;;;;;5045806;28;20451;-46
2023/10/06 10:19:04;;;;;;;12.33;4.40;;;23.90;44.80;;;;;;5051981;28;20444;-50
2023/10/06 10:21:34;;;;;;;9.00;5.27;;;24.20;45.00;;;;;;5044291;28;20424;-48
2023/10/06 10:24:05;;;;;;;12.17;5.33;;;24.40;43.80;;;;;;5037453;28;20434;-47
2023/10/06 10:26:33;;;;;;;7.60;6.07;;;24.60;43.50;;;;;;5048679;28;20487;-48
2023/10/06 10:29:17;;;;;;;6.47;4.50;;;24.60;43.20;;;;;;5039946;28;20808;-46
2023/10/06 10:31:47;;;;;;;10.07;5.80;;;24.70;43.50;;;;;;5048047;28;20439;-46
2023/10/06 10:34:23;;;;;;;7.37;4.83;;;24.90;43.10;;;;;;5048206;28;20455;-47
2023/10/06 10:36:54;;;;;;;8.13;5.90;;;25.10;42.40;;;;;;5045376;28;20429;-49
2023/10/06 10:39:21;;;;;;;8.60;5.23;;;25.20;42.60;;;;;;5050725;28;20527;-49
2023/10/06 10:41:47;;;;;;;10.57;5.87;;;25.40;42.00;;;;;;5043415;28;20525;-50
2023/10/06 10:44:14;;;;;;;9.57;5.43;;;25.50;42.10;;;;;;5041738;28;20537;-45
2023/10/06 10:46:48;;;;;;;6.73;4.97;;;25.40;41.00;;;;;;5050999;28;20231;-50
2023/10/06 10:49:19;;;;;;;5.47;4.50;;;25.60;41.10;;;;;;5045605;28;20482;-49
2023/10/06 10:52:02;;;;;;;9.13;4.93;;;25.90;41.30;;;;;;5042972;28;20445;-50
2023/10/06 10:54:28;;;;;;;9.23;5.20;;;26.10;40.80;;;;;;5047264;28;20462;-45
2023/10/06 10:57:01;;;;;;;6.80;4.60;;;26.20;40.40;;;;;;5046498;28;20450;-46
2023/10/06 11:02:48;;;;;;;6.97;4.43;;;26.30;39.80;;;;;;5044729;28;20486;-47
2023/10/06 11:05:19;;;;;;;8.40;5.17;;;26.20;40.10;;;;;;5043572;28;20454;-46
2023/10/06 11:07:58;;;;;;;10.83;4.97;;;26.20;40.20;;;;;;5046290;28;20871;-47
2023/10/06 11:10:26;;;;;;;9.23;4.13;;;26.20;40.20;;;;;;5046330;28;20498;-47
2023/10/06 11:13:12;;;;;;;6.97;4.97;;;26.40;40.30;;;;;;5043405;28;20486;-49
2023/10/06 11:15:38;;;;;;;7.87;4.20;;;26.50;40.30;;;;;;5045394;28;20442;-47
2023/10/06 11:18:06;;;;;;;6.03;4.33;;;26.70;40.20;;;;;;5048394;28;20485;-46
2023/10/06 11:20:36;;;;;;;6.57;4.50;;;26.90;40.60;;;;;;5045672;28;20193;-46
2023/10/06 11:23:03;;;;;;;5.70;3.67;;;27.00;38.60;;;;;;5046485;28;20525;-46
2023/10/06 11:25:32;;;;;;;8.27;4.83;;;27.10;39.20;;;;;;5049299;28;20540;-46
2023/10/06 11:28:06;;;;;;;6.70;4.63;;;27.40;38.00;;;;;;5051576;28;20435;-49
2023/10/06 11:30:34;;;;;;;8.50;5.90;;;27.60;37.40;;;;;;5046229;28;20449;-45
2023/10/06 11:33:02;;;;;;;7.67;4.80;;;27.70;38.30;;;;;;5046690;28;20470;-45
2023/10/06 11:35:27;;;;;;;6.23;4.40;;;27.70;37.40;;;;;;5046805;28;20948;-45
2023/10/06 11:37:54;;;;;;;8.73;4.33;;;27.80;37.10;;;;;;5045933;28;20443;-45
2023/10/06 11:40:21;;;;;;;8.73;4.40;;;27.80;37.10;;;;;;5044472;28;20200;-46
2023/10/06 11:42:47;;;;;;;6.13;5.10;;;27.90;37.60;;;;;;5048015;28;20976;-46
2023/10/06 11:45:30;;;;;;;6.73;4.77;;;27.90;37.30;;;;;;5043336;28;20442;-46
2023/10/06 11:47:57;;;;;;;6.67;4.30;;;27.90;36.60;;;;;;5046958;28;20865;-46
2023/10/06 11:50:26;;;;;;;8.80;4.87;;;27.90;37.10;;;;;;5045467;28;20443;-46
2023/10/06 11:52:52;;;;;;;5.97;3.97;;;27.90;36.50;;;;;;5046794;28;20443;-47
2023/10/06 11:55:33;;;;;;;7.43;4.80;;;28.00;36.60;;;;;;5051229;28;20434;-50
2023/10/06 11:58:08;;;;;;;6.23;4.27;;;27.90;36.50;;;;;;5047789;28;20918;-46
2023/10/06 12:00:39;;;;;;;7.37;4.57;;;27.90;36.50;;;;;;5043347;28;20449;-48
2023/10/06 12:03:12;;;;;;;8.13;5.03;;;28.00;36.70;;;;;;5044947;28;20667;-46
2023/10/06 12:05:41;;;;;;;6.17;4.50;;;28.00;35.50;;;;;;5041693;28;20962;-49
2023/10/06 12:08:08;;;;;;;8.57;5.23;;;28.10;35.40;;;;;;5045856;28;20450;-46
2023/10/06 12:10:50;;;;;;;9.43;5.83;;;28.20;35.20;;;;;;5043173;28;20502;-47
2023/10/06 12:13:16;;;;;;;8.07;4.50;;;28.00;35.20;;;;;;5045022;28;20427;-46
2023/10/06 12:15:44;;;;;;;7.50;4.93;;;28.00;35.40;;;;;;5041308;28;20798;-48
2023/10/06 12:18:10;;;;;;;8.90;5.43;;;28.10;35.70;;;;;;5041991;28;20439;-45
2023/10/06 12:20:36;;;;;;;8.57;5.10;;;28.30;34.60;;;;;;5035457;28;20446;-46
2023/10/06 12:23:01;;;;;;;7.90;5.40;;;28.30;34.90;;;;;;5049571;28;20449;-45
2023/10/06 12:25:27;;;;;;;6.63;5.20;;;28.20;35.00;;;;;;5049033;28;20224;-46
2023/10/06 12:27:53;;;;;;;11.13;6.23;;;28.10;35.10;;;;;;5048896;28;20201;-49
2023/10/06 12:30:19;;;;;;;7.00;5.20;;;28.10;35.30;;;;;;5046308;28;20197;-47
2023/10/06 12:32:48;;;;;;;8.73;4.87;;;28.20;35.40;;;;;;5047308;28;20238;-47
2023/10/06 12:35:18;;;;;;;6.00;4.80;;;28.30;34.70;;;;;;5038434;28;20789;-46
2023/10/06 12:37:45;;;;;;;8.13;4.73;;;28.40;35.30;;;;;;5048811;28;20450;-48
2023/10/06 12:40:13;;;;;;;8.53;5.53;;;28.50;34.60;;;;;;5045797;28;20812;-45
2023/10/06 12:42:42;;;;;;;12.27;5.40;;;28.60;34.30;;;;;;5044765;28;20473;-45
2023/10/06 12:45:12;;;;;;;6.90;5.07;;;28.50;34.20;;;;;;5049230;28;20447;-49
2023/10/06 12:47:41;;;;;;;6.30;4.57;;;28.60;34.40;;;;;;5049071;28;20937;-46
2023/10/06 12:50:08;;;;;;;7.73;5.03;;;28.60;34.40;;;;;;5048423;28;20445;-47
2023/10/06 12:52:37;;;;;;;11.07;5.30;;;28.60;34.50;;;;;;5044561;28;20953;-46
2023/10/06 12:55:10;;;;;;;8.43;5.20;;;28.70;34.30;;;;;;5050719;28;20481;-47
2023/10/06 12:57:37;;;;;;;7.93;5.27;;;28.80;33.70;;;;;;5045639;28;20454;-46
2023/10/06 13:00:03;;;;;;;5.93;4.57;;;28.80;33.90;;;;;;5047326;28;20451;-46
2023/10/06 13:02:31;;;;;;;9.47;5.50;;;29.00;34.10;;;;;;5045938;28;20454;-47